Redlands, CA (92373)

2:35 AM PDT on October 26, 2014 (GMT -0700)
Redlands High School-Terriers | Change Station
CLOSE
Current Station
Personal Weather Station
Location: Redlands, CA
Elevation: 1505 ft
Nearby Weather Stations

Elev 1505 ft 34.05 °N, 117.17 °W | Updated 4 seconds ago

Clear
Clear
54.4 °F
Feels Like 54.4 °F
N
0.0
Wind Variable Wind from North
Gusts 0.0 mph

Today
High -- | Low -- °F
--% Chance of Precip.
Yesterday
High -- | Low -- °F
Precip. -- in
7:03 AM 6:01 PM
Waxing Crescent, 7% visible
Pressure 30.00 in
Visibility 10.0 miles
Clouds Clear
Dew Point 48 °F
Humidity 79%
Rainfall 0.00 in
Snow Depth Not available.
UV 0.0 out of 12
Pollen 3.80 out of 12
Ozone Good
Flu Activity Sporadic
METAR KRIV 260858Z AUTO 00000KT 10SM CLR 13/07 A3003 RMK AO2 SLP159 T01260065 57006

More Conditions Fewer Conditions

Pressure 30.00 in
Visibility 10.0 miles
Clouds Clear
Dew Point 48 °F
Humidity 79%
Rainfall 0.00 in
Snow Depth Not available.
UV 0.0 out of 12
Pollen 3.80 out of 12
Ozone Good
Flu Activity Sporadic
METAR KRIV 260858Z AUTO 00000KT 10SM CLR 13/07 A3003 RMK AO2 SLP159 T01260065 57006

More Conditions Fewer Conditions

10-Day Weather Forecast

Almanac

Astronomy

Oct. 26, 2014 Rise Set
Actual Time 7:03 AM PDT 6:01 PM PDT
Civil Twilight 6:37 AM PDT 6:27 PM PDT
Nautical Twilight 6:08 AM PDT 6:56 PM PDT
Astronomical Twilight 5:38 AM PDT 7:25 PM PDT
Moon 9:40 AM PDT 8:22 PM PDT
Length of Visible Light 11h 49m
Length of Day
10h 58m
Tomorrow will be 1m 55s shorter.
Waxing Crescent, 7% of the Moon is Illuminated
Today
Waxing Crescent
Oct 30
First Quarter
Nov 6
Full
Nov 14
Last Quarter
Nov 22
New

Today's Extremes

State Highs State Lows

Community

WunderPhotos

Upload Photos

1,765,130 photos uploaded!

Nearby

Air Quality

  Air Quality AQ Index Pollutant
Yesterday Good
OZONE
Current Good
OZONE
Sunday Good
PM10
Sunday Moderate
OZONE
Sunday Good
CO
Sunday Good
NO2

Snow Depth

Station Depth Elevation
Virginia Lakes Ridge 0 in 9200 ft
Leavitt Lake 2 in 9400 ft
Leavitt Meadows 1 in 7200 ft
Sonora Pass 1 in 8800 ft
Summit Meadow 0 in 9122 ft

Earthquake Activity

City Distance Mag. Time & Date
Barstow, California 65 miles 2.9 2:48 PM PDT
2014-10-25
Running Springs, California 17 miles 3.1 4:07 AM PDT
2014-10-25
Brea, California 42 miles 2.9 3:35 PM PDT
2014-10-23
Brea, California 41 miles 2.8 3:34 PM PDT
2014-10-23
Minimum magnitude displayed is 2.5.

Coastal Water Temperatures

Place Temperature
No Stations Reporting

Nearby Weather Stations